Página principal
METAR-TAF:

METAR-TAF

Aeroportos :

Yap, Yap Island, Micronésia

latitude: 09-29N, longitude: 138-05E, altura: 28 m

Observação actual do tempo

O boletim foi feito há 30 minutos, às 16:55 UTC
Vento 7 kt de nordeste
Temperatura 26°C
Humidade 89%
Pressão 1008 hPa
Visibilidade: 16.1 km
Nuvens dispersasa uma altura de 1600 ft, Cumulus congestus.
Nuvens fragmentadasa uma altura de 13000 ft
Encobertoa uma altura de 30000 ft
aguaceiros fracos de chuva

METAR: PTYA 281655Z 05007KT 10SM -SHRA SCT016TCU BKN130 OVC300 26/24 A2977 RMK TCU ALQDS SLP083 T02600244

Hora: 03:25 (17:25 UTC)

Previsão

O boletim foi feito há 6 horas e 5 minutos, às 11:20 UTC
Previsão válida de 28 às 12 UTC a 29 às 12 UTC
Vento 7 kt de es-nordeste
Visibilidade: 10 km
Nuvens dispersasa uma altura de 1500 ft
Nuvens dispersasa uma altura de 3000 ft
Nuvens fragmentadasa uma altura de 13000 ft
aguaceiros nas vizinhanças

TAF: PTYA 281120Z 2812/2912 07007KT P6SM VCSH SCT015 SCT030 BKN130

Observações e previsões do tempo de mais de 4000 aeroportos (mensagens METAR e TAF).

As estações disponíveis são os pontos amarelos e vermelhos sobre o mapa.

Mova o rato sobre o mapa para ver o nome da estação.

Depois clique no ponto para visualizar as observações e previsões meteorológicas.

Para alterar o mapa : clique nos botões verdes com uma cruz preta para aumentar o zoom; no botão verde com uma pitada de zoom; ou nas setas verdes para mapas adjacentes.


METAR-TAF: